sensor_id;sensor_type;location;lat;lon;timestamp;temperature;humidity
26655;DHT22;14278;50.784;4.630;2024-02-16T00:00:14;14.80;99.90
26655;DHT22;14278;50.784;4.630;2024-02-16T00:02:42;14.70;99.90
26655;DHT22;14278;50.784;4.630;2024-02-16T00:05:11;14.70;99.90
26655;DHT22;14278;50.784;4.630;2024-02-16T00:07:38;14.60;99.90
26655;DHT22;14278;50.784;4.630;2024-02-16T00:10:04;14.80;99.90
26655;DHT22;14278;50.784;4.630;2024-02-16T00:12:31;14.80;99.90
26655;DHT22;14278;50.784;4.630;2024-02-16T00:14:58;14.80;99.90
26655;DHT22;14278;50.784;4.630;2024-02-16T00:17:24;14.90;99.90
26655;DHT22;14278;50.784;4.630;2024-02-16T00:20:01;14.60;99.90
26655;DHT22;14278;50.784;4.630;2024-02-16T00:22:26;14.80;99.90
26655;DHT22;14278;50.784;4.630;2024-02-16T00:24:52;14.80;99.90
26655;DHT22;14278;50.784;4.630;2024-02-16T00:27:18;14.70;99.90
26655;DHT22;14278;50.784;4.630;2024-02-16T00:29:44;14.60;99.90
26655;DHT22;14278;50.784;4.630;2024-02-16T00:32:11;14.70;99.90
26655;DHT22;14278;50.784;4.630;2024-02-16T00:34:38;14.70;99.90
26655;DHT22;14278;50.784;4.630;2024-02-16T00:37:05;14.70;99.90
26655;DHT22;14278;50.784;4.630;2024-02-16T00:39:38;14.80;99.90
26655;DHT22;14278;50.784;4.630;2024-02-16T00:42:07;15.00;99.90
26655;DHT22;14278;50.784;4.630;2024-02-16T00:44:32;14.90;99.90
26655;DHT22;14278;50.784;4.630;2024-02-16T00:46:58;14.80;99.90
26655;DHT22;14278;50.784;4.630;2024-02-16T00:49:24;14.60;99.90
26655;DHT22;14278;50.784;4.630;2024-02-16T00:51:50;14.60;99.90
26655;DHT22;14278;50.784;4.630;2024-02-16T00:54:17;14.70;99.90
26655;DHT22;14278;50.784;4.630;2024-02-16T00:56:42;15.00;99.90
26655;DHT22;14278;50.784;4.630;2024-02-16T00:59:08;15.20;99.90
26655;DHT22;14278;50.784;4.630;2024-02-16T01:01:35;15.10;99.90
26655;DHT22;14278;50.784;4.630;2024-02-16T01:04:04;15.00;99.90
26655;DHT22;14278;50.784;4.630;2024-02-16T01:06:32;14.80;99.90
26655;DHT22;14278;50.784;4.630;2024-02-16T01:08:58;14.80;99.90
26655;DHT22;14278;50.784;4.630;2024-02-16T01:11:24;14.60;99.90
26655;DHT22;14278;50.784;4.630;2024-02-16T01:13:50;14.40;99.90
26655;DHT22;14278;50.784;4.630;2024-02-16T01:16:16;14.70;99.90
26655;DHT22;14278;50.784;4.630;2024-02-16T01:18:44;14.60;99.90
26655;DHT22;14278;50.784;4.630;2024-02-16T01:21:10;14.50;99.90
26655;DHT22;14278;50.784;4.630;2024-02-16T01:23:36;14.60;99.90
26655;DHT22;14278;50.784;4.630;2024-02-16T01:26:02;14.60;99.90
26655;DHT22;14278;50.784;4.630;2024-02-16T01:28:28;14.70;99.90
26655;DHT22;14278;50.784;4.630;2024-02-16T01:30:56;14.80;99.90
26655;DHT22;14278;50.784;4.630;2024-02-16T01:33:22;14.90;99.90
26655;DHT22;14278;50.784;4.630;2024-02-16T01:35:48;14.40;99.90
26655;DHT22;14278;50.784;4.630;2024-02-16T01:38:13;14.70;99.90
26655;DHT22;14278;50.784;4.630;2024-02-16T01:40:39;14.70;99.90
26655;DHT22;14278;50.784;4.630;2024-02-16T01:43:05;14.90;99.90
26655;DHT22;14278;50.784;4.630;2024-02-16T01:45:31;15.00;99.90
26655;DHT22;14278;50.784;4.630;2024-02-16T01:47:57;15.20;99.90
26655;DHT22;14278;50.784;4.630;2024-02-16T01:50:23;15.00;99.90
26655;DHT22;14278;50.784;4.630;2024-02-16T01:52:50;14.80;99.90
26655;DHT22;14278;50.784;4.630;2024-02-16T01:55:16;14.80;99.90
26655;DHT22;14278;50.784;4.630;2024-02-16T01:57:46;14.90;99.90
26655;DHT22;14278;50.784;4.630;2024-02-16T02:00:12;14.70;99.90
26655;DHT22;14278;50.784;4.630;2024-02-16T02:02:41;14.80;99.90
26655;DHT22;14278;50.784;4.630;2024-02-16T02:05:09;15.10;99.90
26655;DHT22;14278;50.784;4.630;2024-02-16T02:07:35;15.00;99.90
26655;DHT22;14278;50.784;4.630;2024-02-16T02:10:00;15.00;99.90
26655;DHT22;14278;50.784;4.630;2024-02-16T02:12:26;15.00;99.90
26655;DHT22;14278;50.784;4.630;2024-02-16T02:14:52;15.00;99.90
26655;DHT22;14278;50.784;4.630;2024-02-16T02:17:18;15.00;99.90
26655;DHT22;14278;50.784;4.630;2024-02-16T02:19:48;14.80;99.90
26655;DHT22;14278;50.784;4.630;2024-02-16T02:22:20;14.90;99.90
26655;DHT22;14278;50.784;4.630;2024-02-16T02:24:46;14.90;99.90
26655;DHT22;14278;50.784;4.630;2024-02-16T02:27:12;15.10;99.90
26655;DHT22;14278;50.784;4.630;2024-02-16T02:29:39;15.00;99.90
26655;DHT22;14278;50.784;4.630;2024-02-16T02:32:05;15.00;99.90
26655;DHT22;14278;50.784;4.630;2024-02-16T02:34:31;15.10;99.90
26655;DHT22;14278;50.784;4.630;2024-02-16T02:36:57;15.10;99.90
26655;DHT22;14278;50.784;4.630;2024-02-16T02:39:23;15.00;99.90
26655;DHT22;14278;50.784;4.630;2024-02-16T02:41:48;14.90;99.90
26655;DHT22;14278;50.784;4.630;2024-02-16T02:44:14;15.00;99.90
26655;DHT22;14278;50.784;4.630;2024-02-16T02:46:40;14.80;99.90
26655;DHT22;14278;50.784;4.630;2024-02-16T02:49:05;14.80;99.90
26655;DHT22;14278;50.784;4.630;2024-02-16T02:51:31;14.90;99.90
26655;DHT22;14278;50.784;4.630;2024-02-16T02:53:57;15.10;99.90
26655;DHT22;14278;50.784;4.630;2024-02-16T02:56:22;15.10;99.90
26655;DHT22;14278;50.784;4.630;2024-02-16T02:58:48;14.70;99.90
26655;DHT22;14278;50.784;4.630;2024-02-16T03:01:15;14.90;99.90
26655;DHT22;14278;50.784;4.630;2024-02-16T03:03:41;14.90;99.90
26655;DHT22;14278;50.784;4.630;2024-02-16T03:06:08;15.30;99.90
26655;DHT22;14278;50.784;4.630;2024-02-16T03:08:35;14.80;99.90
26655;DHT22;14278;50.784;4.630;2024-02-16T03:11:00;14.80;99.90
26655;DHT22;14278;50.784;4.630;2024-02-16T03:13:26;14.80;99.90
26655;DHT22;14278;50.784;4.630;2024-02-16T03:15:52;14.90;99.90
26655;DHT22;14278;50.784;4.630;2024-02-16T03:18:19;14.80;99.90
26655;DHT22;14278;50.784;4.630;2024-02-16T03:20:45;14.90;99.90
26655;DHT22;14278;50.784;4.630;2024-02-16T03:23:17;14.70;99.90
26655;DHT22;14278;50.784;4.630;2024-02-16T03:25:43;14.80;99.90
26655;DHT22;14278;50.784;4.630;2024-02-16T03:28:12;14.90;99.90
26655;DHT22;14278;50.784;4.630;2024-02-16T03:30:38;15.00;99.90
26655;DHT22;14278;50.784;4.630;2024-02-16T03:33:07;15.10;99.90
26655;DHT22;14278;50.784;4.630;2024-02-16T03:35:33;15.10;99.90
26655;DHT22;14278;50.784;4.630;2024-02-16T03:37:59;15.20;99.90
26655;DHT22;14278;50.784;4.630;2024-02-16T03:40:25;15.00;99.90
26655;DHT22;14278;50.784;4.630;2024-02-16T03:42:51;15.00;99.90
26655;DHT22;14278;50.784;4.630;2024-02-16T03:45:17;15.00;99.90
26655;DHT22;14278;50.784;4.630;2024-02-16T03:47:43;15.00;99.90
26655;DHT22;14278;50.784;4.630;2024-02-16T03:50:09;14.80;99.90
26655;DHT22;14278;50.784;4.630;2024-02-16T03:52:35;15.00;99.90
26655;DHT22;14278;50.784;4.630;2024-02-16T03:55:01;14.90;99.90
26655;DHT22;14278;50.784;4.630;2024-02-16T03:57:27;14.80;99.90
26655;DHT22;14278;50.784;4.630;2024-02-16T03:59:52;14.90;99.90
26655;DHT22;14278;50.784;4.630;2024-02-16T04:02:18;15.00;99.90
26655;DHT22;14278;50.784;4.630;2024-02-16T04:04:44;15.10;99.90
26655;DHT22;14278;50.784;4.630;2024-02-16T04:07:10;15.10;99.90
26655;DHT22;14278;50.784;4.630;2024-02-16T04:09:36;15.20;99.90
26655;DHT22;14278;50.784;4.630;2024-02-16T04:12:02;15.20;99.90
26655;DHT22;14278;50.784;4.630;2024-02-16T04:14:29;15.10;99.90
26655;DHT22;14278;50.784;4.630;2024-02-16T04:16:56;15.30;99.90
26655;DHT22;14278;50.784;4.630;2024-02-16T04:19:25;15.10;99.90
26655;DHT22;14278;50.784;4.630;2024-02-16T04:21:51;15.10;99.90
26655;DHT22;14278;50.784;4.630;2024-02-16T04:24:17;14.90;99.90
26655;DHT22;14278;50.784;4.630;2024-02-16T04:26:42;15.00;99.90
26655;DHT22;14278;50.784;4.630;2024-02-16T04:29:08;15.30;99.90
26655;DHT22;14278;50.784;4.630;2024-02-16T04:31:39;15.20;99.90
26655;DHT22;14278;50.784;4.630;2024-02-16T04:34:05;15.20;99.90
26655;DHT22;14278;50.784;4.630;2024-02-16T04:36:31;15.20;99.90
26655;DHT22;14278;50.784;4.630;2024-02-16T04:38:57;15.30;99.90
26655;DHT22;14278;50.784;4.630;2024-02-16T04:41:22;15.20;99.90
26655;DHT22;14278;50.784;4.630;2024-02-16T04:43:48;14.80;99.90
26655;DHT22;14278;50.784;4.630;2024-02-16T04:46:15;15.10;99.90
26655;DHT22;14278;50.784;4.630;2024-02-16T04:48:41;14.90;99.90
26655;DHT22;14278;50.784;4.630;2024-02-16T04:51:07;14.80;99.90
26655;DHT22;14278;50.784;4.630;2024-02-16T04:53:32;14.90;99.90
26655;DHT22;14278;50.784;4.630;2024-02-16T04:55:58;15.00;99.90
26655;DHT22;14278;50.784;4.630;2024-02-16T04:58:27;15.20;99.90
26655;DHT22;14278;50.784;4.630;2024-02-16T05:00:52;15.50;99.90
26655;DHT22;14278;50.784;4.630;2024-02-16T05:03:18;15.40;99.90
26655;DHT22;14278;50.784;4.630;2024-02-16T05:05:43;15.50;99.90
26655;DHT22;14278;50.784;4.630;2024-02-16T05:08:09;15.50;99.90
26655;DHT22;14278;50.784;4.630;2024-02-16T05:10:35;15.20;99.90
26655;DHT22;14278;50.784;4.630;2024-02-16T05:13:01;15.10;99.90
26655;DHT22;14278;50.784;4.630;2024-02-16T05:15:26;15.10;99.90
26655;DHT22;14278;50.784;4.630;2024-02-16T05:17:53;15.20;99.90
26655;DHT22;14278;50.784;4.630;2024-02-16T05:20:18;15.20;99.90
26655;DHT22;14278;50.784;4.630;2024-02-16T05:22:46;15.20;99.90
26655;DHT22;14278;50.784;4.630;2024-02-16T05:25:15;15.30;99.90
26655;DHT22;14278;50.784;4.630;2024-02-16T05:27:41;15.10;99.90
26655;DHT22;14278;50.784;4.630;2024-02-16T05:30:10;15.10;99.90
26655;DHT22;14278;50.784;4.630;2024-02-16T05:32:37;15.10;99.90
26655;DHT22;14278;50.784;4.630;2024-02-16T05:35:07;15.10;99.90
26655;DHT22;14278;50.784;4.630;2024-02-16T05:37:45;15.30;99.90
26655;DHT22;14278;50.784;4.630;2024-02-16T05:40:18;15.20;99.90
26655;DHT22;14278;50.784;4.630;2024-02-16T05:42:47;15.10;99.90
26655;DHT22;14278;50.784;4.630;2024-02-16T05:45:14;15.10;99.90
26655;DHT22;14278;50.784;4.630;2024-02-16T05:47:40;15.10;99.90
26655;DHT22;14278;50.784;4.630;2024-02-16T05:50:06;15.00;99.90
26655;DHT22;14278;50.784;4.630;2024-02-16T05:52:33;15.10;99.90
26655;DHT22;14278;50.784;4.630;2024-02-16T05:54:58;15.10;99.90
26655;DHT22;14278;50.784;4.630;2024-02-16T05:57:24;15.30;99.90
26655;DHT22;14278;50.784;4.630;2024-02-16T05:59:50;15.10;99.90
26655;DHT22;14278;50.784;4.630;2024-02-16T06:02:17;15.10;99.90
26655;DHT22;14278;50.784;4.630;2024-02-16T06:04:43;15.00;99.90
26655;DHT22;14278;50.784;4.630;2024-02-16T06:07:09;15.10;99.90
26655;DHT22;14278;50.784;4.630;2024-02-16T06:09:36;14.90;99.90
26655;DHT22;14278;50.784;4.630;2024-02-16T06:12:04;14.90;99.90
26655;DHT22;14278;50.784;4.630;2024-02-16T06:14:33;15.10;99.90
26655;DHT22;14278;50.784;4.630;2024-02-16T06:16:59;15.00;99.90
26655;DHT22;14278;50.784;4.630;2024-02-16T06:19:26;14.80;99.90
26655;DHT22;14278;50.784;4.630;2024-02-16T06:21:53;14.70;99.90
26655;DHT22;14278;50.784;4.630;2024-02-16T06:24:22;14.70;99.90
26655;DHT22;14278;50.784;4.630;2024-02-16T06:26:49;14.80;99.90
26655;DHT22;14278;50.784;4.630;2024-02-16T06:29:16;14.80;99.90
26655;DHT22;14278;50.784;4.630;2024-02-16T06:31:42;15.00;99.90
26655;DHT22;14278;50.784;4.630;2024-02-16T06:34:07;14.80;99.90
26655;DHT22;14278;50.784;4.630;2024-02-16T06:36:34;14.80;99.90
26655;DHT22;14278;50.784;4.630;2024-02-16T06:39:00;14.80;99.90
26655;DHT22;14278;50.784;4.630;2024-02-16T06:41:25;15.10;99.90
26655;DHT22;14278;50.784;4.630;2024-02-16T06:43:51;15.00;99.90
26655;DHT22;14278;50.784;4.630;2024-02-16T06:46:17;14.80;99.90
26655;DHT22;14278;50.784;4.630;2024-02-16T06:48:42;14.60;99.90
26655;DHT22;14278;50.784;4.630;2024-02-16T06:51:08;14.60;99.90
26655;DHT22;14278;50.784;4.630;2024-02-16T06:53:34;15.00;99.90
26655;DHT22;14278;50.784;4.630;2024-02-16T06:55:59;15.20;99.90
26655;DHT22;14278;50.784;4.630;2024-02-16T06:58:25;15.40;99.90
26655;DHT22;14278;50.784;4.630;2024-02-16T07:00:51;15.10;99.90
26655;DHT22;14278;50.784;4.630;2024-02-16T07:03:17;15.00;99.90
26655;DHT22;14278;50.784;4.630;2024-02-16T07:05:43;14.80;99.90
26655;DHT22;14278;50.784;4.630;2024-02-16T07:08:09;14.50;99.90
26655;DHT22;14278;50.784;4.630;2024-02-16T07:10:35;14.60;99.90
26655;DHT22;14278;50.784;4.630;2024-02-16T07:13:01;15.00;99.90
26655;DHT22;14278;50.784;4.630;2024-02-16T07:15:27;15.00;99.90
26655;DHT22;14278;50.784;4.630;2024-02-16T07:17:53;15.10;99.90
26655;DHT22;14278;50.784;4.630;2024-02-16T07:20:19;15.40;99.90
26655;DHT22;14278;50.784;4.630;2024-02-16T07:22:44;15.30;99.90
26655;DHT22;14278;50.784;4.630;2024-02-16T07:25:15;15.20;99.90
26655;DHT22;14278;50.784;4.630;2024-02-16T07:27:41;15.10;99.90
26655;DHT22;14278;50.784;4.630;2024-02-16T07:30:07;15.10;99.90
26655;DHT22;14278;50.784;4.630;2024-02-16T07:32:33;15.00;99.90
26655;DHT22;14278;50.784;4.630;2024-02-16T07:34:59;14.90;99.90
26655;DHT22;14278;50.784;4.630;2024-02-16T07:37:25;15.00;99.90
26655;DHT22;14278;50.784;4.630;2024-02-16T07:39:50;15.20;99.90
26655;DHT22;14278;50.784;4.630;2024-02-16T07:42:16;15.20;99.90
26655;DHT22;14278;50.784;4.630;2024-02-16T07:44:42;15.20;99.90
26655;DHT22;14278;50.784;4.630;2024-02-16T07:47:08;15.10;99.90
26655;DHT22;14278;50.784;4.630;2024-02-16T07:49:33;15.10;99.90
26655;DHT22;14278;50.784;4.630;2024-02-16T07:51:59;15.20;99.90
26655;DHT22;14278;50.784;4.630;2024-02-16T07:54:25;15.30;99.90
26655;DHT22;14278;50.784;4.630;2024-02-16T07:56:50;15.10;99.90
26655;DHT22;14278;50.784;4.630;2024-02-16T07:59:16;15.20;99.90
26655;DHT22;14278;50.784;4.630;2024-02-16T08:01:44;15.30;99.90
26655;DHT22;14278;50.784;4.630;2024-02-16T08:04:10;14.90;99.90
26655;DHT22;14278;50.784;4.630;2024-02-16T08:06:37;14.70;99.90
26655;DHT22;14278;50.784;4.630;2024-02-16T08:09:03;14.50;99.90
26655;DHT22;14278;50.784;4.630;2024-02-16T08:11:32;14.60;99.90
26655;DHT22;14278;50.784;4.630;2024-02-16T08:13:58;14.40;99.90
26655;DHT22;14278;50.784;4.630;2024-02-16T08:16:27;14.70;99.90
26655;DHT22;14278;50.784;4.630;2024-02-16T08:18:53;14.60;99.90
26655;DHT22;14278;50.784;4.630;2024-02-16T08:21:19;14.90;99.90
26655;DHT22;14278;50.784;4.630;2024-02-16T08:23:44;15.10;99.90
26655;DHT22;14278;50.784;4.630;2024-02-16T08:26:10;15.20;99.90
26655;DHT22;14278;50.784;4.630;2024-02-16T08:28:36;15.30;99.90
26655;DHT22;14278;50.784;4.630;2024-02-16T08:31:04;15.10;99.90
26655;DHT22;14278;50.784;4.630;2024-02-16T08:33:30;14.90;99.90
26655;DHT22;14278;50.784;4.630;2024-02-16T08:35:57;14.90;99.90
26655;DHT22;14278;50.784;4.630;2024-02-16T08:38:26;15.20;99.90
26655;DHT22;14278;50.784;4.630;2024-02-16T08:40:52;15.30;99.90
26655;DHT22;14278;50.784;4.630;2024-02-16T08:43:18;15.40;99.90
26655;DHT22;14278;50.784;4.630;2024-02-16T08:45:44;15.20;99.90
26655;DHT22;14278;50.784;4.630;2024-02-16T08:48:11;14.90;99.90
26655;DHT22;14278;50.784;4.630;2024-02-16T08:50:36;15.30;99.90
26655;DHT22;14278;50.784;4.630;2024-02-16T08:53:09;15.50;99.90
26655;DHT22;14278;50.784;4.630;2024-02-16T08:55:36;15.40;99.90
26655;DHT22;14278;50.784;4.630;2024-02-16T08:58:02;15.50;99.90
26655;DHT22;14278;50.784;4.630;2024-02-16T09:00:28;15.50;99.90
26655;DHT22;14278;50.784;4.630;2024-02-16T09:02:57;15.50;99.90
26655;DHT22;14278;50.784;4.630;2024-02-16T09:05:24;15.60;99.90
26655;DHT22;14278;50.784;4.630;2024-02-16T09:08:14;15.30;99.90
26655;DHT22;14278;50.784;4.630;2024-02-16T09:10:39;15.40;99.90
26655;DHT22;14278;50.784;4.630;2024-02-16T09:13:06;15.10;99.90
26655;DHT22;14278;50.784;4.630;2024-02-16T09:15:31;15.20;99.90
26655;DHT22;14278;50.784;4.630;2024-02-16T09:17:57;15.20;99.90
26655;DHT22;14278;50.784;4.630;2024-02-16T09:20:23;15.40;99.90
26655;DHT22;14278;50.784;4.630;2024-02-16T09:22:49;15.20;99.90
26655;DHT22;14278;50.784;4.630;2024-02-16T09:25:16;15.10;99.90
26655;DHT22;14278;50.784;4.630;2024-02-16T09:27:41;15.00;99.90
26655;DHT22;14278;50.784;4.630;2024-02-16T09:30:12;15.00;99.90
26655;DHT22;14278;50.784;4.630;2024-02-16T09:32:41;15.10;99.90
26655;DHT22;14278;50.784;4.630;2024-02-16T09:35:08;15.20;99.90
26655;DHT22;14278;50.784;4.630;2024-02-16T09:37:39;15.00;99.90
26655;DHT22;14278;50.784;4.630;2024-02-16T09:40:24;14.80;99.90
26655;DHT22;14278;50.784;4.630;2024-02-16T09:42:50;14.80;99.90
26655;DHT22;14278;50.784;4.630;2024-02-16T09:45:16;15.10;99.90
26655;DHT22;14278;50.784;4.630;2024-02-16T09:47:45;15.20;99.90
26655;DHT22;14278;50.784;4.630;2024-02-16T09:50:15;15.30;99.90
26655;DHT22;14278;50.784;4.630;2024-02-16T09:52:47;15.10;99.90
26655;DHT22;14278;50.784;4.630;2024-02-16T09:55:13;15.10;99.90
26655;DHT22;14278;50.784;4.630;2024-02-16T09:57:39;15.10;99.90
26655;DHT22;14278;50.784;4.630;2024-02-16T10:00:11;14.90;99.90
26655;DHT22;14278;50.784;4.630;2024-02-16T10:05:17;15.00;99.90
26655;DHT22;14278;50.784;4.630;2024-02-16T10:07:43;15.10;99.90
26655;DHT22;14278;50.784;4.630;2024-02-16T10:13:43;15.00;99.90
26655;DHT22;14278;50.784;4.630;2024-02-16T10:16:11;15.10;99.90
26655;DHT22;14278;50.784;4.630;2024-02-16T10:18:50;15.10;99.90
26655;DHT22;14278;50.784;4.630;2024-02-16T10:21:27;15.30;99.90
26655;DHT22;14278;50.784;4.630;2024-02-16T10:24:04;15.10;99.90
26655;DHT22;14278;50.784;4.630;2024-02-16T10:27:29;15.30;99.90
26655;DHT22;14278;50.784;4.630;2024-02-16T10:29:57;14.80;99.90
26655;DHT22;14278;50.784;4.630;2024-02-16T10:32:28;14.90;99.90
26655;DHT22;14278;50.784;4.630;2024-02-16T10:35:04;15.00;99.90
26655;DHT22;14278;50.784;4.630;2024-02-16T10:41:41;15.40;99.90
26655;DHT22;14278;50.784;4.630;2024-02-16T10:44:10;15.50;99.90
26655;DHT22;14278;50.784;4.630;2024-02-16T10:46:36;15.60;99.90
26655;DHT22;14278;50.784;4.630;2024-02-16T10:49:03;15.50;99.90
26655;DHT22;14278;50.784;4.630;2024-02-16T10:54:08;15.20;99.90
26655;DHT22;14278;50.784;4.630;2024-02-16T10:56:36;15.10;99.90
26655;DHT22;14278;50.784;4.630;2024-02-16T10:59:07;15.00;99.90
26655;DHT22;14278;50.784;4.630;2024-02-16T11:01:40;15.00;99.90
26655;DHT22;14278;50.784;4.630;2024-02-16T11:04:13;14.90;99.90
26655;DHT22;14278;50.784;4.630;2024-02-16T11:06:55;15.40;99.90
26655;DHT22;14278;50.784;4.630;2024-02-16T11:09:38;14.90;99.90
26655;DHT22;14278;50.784;4.630;2024-02-16T11:12:33;15.00;99.90
26655;DHT22;14278;50.784;4.630;2024-02-16T11:15:00;15.20;99.90
26655;DHT22;14278;50.784;4.630;2024-02-16T11:20:01;15.30;99.90
26655;DHT22;14278;50.784;4.630;2024-02-16T11:25:51;15.20;99.90
26655;DHT22;14278;50.784;4.630;2024-02-16T11:28:33;15.20;99.90
26655;DHT22;14278;50.784;4.630;2024-02-16T11:31:04;15.60;99.90
26655;DHT22;14278;50.784;4.630;2024-02-16T11:52:08;15.20;99.90
26655;DHT22;14278;50.784;4.630;2024-02-16T12:10:47;14.80;99.90
26655;DHT22;14278;50.784;4.630;2024-02-16T12:21:30;14.60;99.90
26655;DHT22;14278;50.784;4.630;2024-02-16T12:24:26;14.80;99.90
26655;DHT22;14278;50.784;4.630;2024-02-16T12:26:57;14.80;99.90
26655;DHT22;14278;50.784;4.630;2024-02-16T12:32:47;14.70;99.90
26655;DHT22;14278;50.784;4.630;2024-02-16T12:38:30;14.30;99.90
26655;DHT22;14278;50.784;4.630;2024-02-16T12:40:57;14.10;99.90
26655;DHT22;14278;50.784;4.630;2024-02-16T12:45:59;14.40;99.90
26655;DHT22;14278;50.784;4.630;2024-02-16T13:14:52;15.30;99.90
26655;DHT22;14278;50.784;4.630;2024-02-16T15:28:27;16.10;99.90
26655;DHT22;14278;50.784;4.630;2024-02-16T15:31:15;16.30;99.90
26655;DHT22;14278;50.784;4.630;2024-02-16T16:16:41;15.40;99.90
26655;DHT22;14278;50.784;4.630;2024-02-16T16:31:33;15.00;99.90
26655;DHT22;14278;50.784;4.630;2024-02-16T16:34:42;14.60;99.90
26655;DHT22;14278;50.784;4.630;2024-02-16T16:37:10;15.00;99.90
26655;DHT22;14278;50.784;4.630;2024-02-16T16:43:07;14.70;99.90
26655;DHT22;14278;50.784;4.630;2024-02-16T16:48:25;14.50;99.90
26655;DHT22;14278;50.784;4.630;2024-02-16T16:54:39;14.60;99.90
26655;DHT22;14278;50.784;4.630;2024-02-16T16:57:57;14.70;99.90
26655;DHT22;14278;50.784;4.630;2024-02-16T17:03:26;14.50;99.90
26655;DHT22;14278;50.784;4.630;2024-02-16T17:08:33;14.60;99.90
26655;DHT22;14278;50.784;4.630;2024-02-16T17:16:46;14.40;99.90
26655;DHT22;14278;50.784;4.630;2024-02-16T17:25:29;14.30;99.90
26655;DHT22;14278;50.784;4.630;2024-02-16T17:31:17;14.50;99.90
26655;DHT22;14278;50.784;4.630;2024-02-16T17:36:40;14.80;99.90
26655;DHT22;14278;50.784;4.630;2024-02-16T17:49:36;14.60;99.90
26655;DHT22;14278;50.784;4.630;2024-02-16T17:52:02;14.60;99.90
26655;DHT22;14278;50.784;4.630;2024-02-16T18:03:39;14.40;99.90
26655;DHT22;14278;50.784;4.630;2024-02-16T18:11:17;14.10;99.90
26655;DHT22;14278;50.784;4.630;2024-02-16T18:19:42;13.60;99.90
26655;DHT22;14278;50.784;4.630;2024-02-16T18:27:25;13.50;99.90
26655;DHT22;14278;50.784;4.630;2024-02-16T18:37:41;13.90;99.90
26655;DHT22;14278;50.784;4.630;2024-02-16T18:40:07;13.90;99.90
26655;DHT22;14278;50.784;4.630;2024-02-16T18:54:39;13.60;99.90
26655;DHT22;14278;50.784;4.630;2024-02-16T18:57:05;13.50;99.90
26655;DHT22;14278;50.784;4.630;2024-02-16T19:06:10;13.60;99.90
26655;DHT22;14278;50.784;4.630;2024-02-16T19:08:40;13.40;99.90
26655;DHT22;14278;50.784;4.630;2024-02-16T19:11:06;13.20;99.90
26655;DHT22;14278;50.784;4.630;2024-02-16T19:16:27;13.00;99.90
26655;DHT22;14278;50.784;4.630;2024-02-16T19:18:53;13.00;99.90
26655;DHT22;14278;50.784;4.630;2024-02-16T19:21:20;13.10;99.90
26655;DHT22;14278;50.784;4.630;2024-02-16T19:23:58;13.40;99.90
26655;DHT22;14278;50.784;4.630;2024-02-16T19:26:25;13.60;99.90
26655;DHT22;14278;50.784;4.630;2024-02-16T20:07:23;13.10;99.90
26655;DHT22;14278;50.784;4.630;2024-02-16T20:10:16;13.00;99.90
26655;DHT22;14278;50.784;4.630;2024-02-16T20:12:43;13.10;99.90
26655;DHT22;14278;50.784;4.630;2024-02-16T20:15:09;13.00;99.90
26655;DHT22;14278;50.784;4.630;2024-02-16T20:17:35;13.40;99.90
26655;DHT22;14278;50.784;4.630;2024-02-16T20:20:04;13.30;99.90
26655;DHT22;14278;50.784;4.630;2024-02-16T20:22:37;13.40;99.90
26655;DHT22;14278;50.784;4.630;2024-02-16T20:25:05;13.20;99.90
26655;DHT22;14278;50.784;4.630;2024-02-16T20:27:37;13.40;99.90
26655;DHT22;14278;50.784;4.630;2024-02-16T20:30:03;13.30;99.90
26655;DHT22;14278;50.784;4.630;2024-02-16T20:32:29;13.00;99.90
26655;DHT22;14278;50.784;4.630;2024-02-16T20:34:55;12.70;99.90
26655;DHT22;14278;50.784;4.630;2024-02-16T20:40:25;12.50;99.90
26655;DHT22;14278;50.784;4.630;2024-02-16T20:42:53;12.20;99.90
26655;DHT22;14278;50.784;4.630;2024-02-16T20:45:21;11.90;99.90
26655;DHT22;14278;50.784;4.630;2024-02-16T20:47:48;11.90;99.90
26655;DHT22;14278;50.784;4.630;2024-02-16T20:50:34;11.90;99.90
26655;DHT22;14278;50.784;4.630;2024-02-16T20:55:39;11.90;99.90
26655;DHT22;14278;50.784;4.630;2024-02-16T20:58:05;11.80;99.90
26655;DHT22;14278;50.784;4.630;2024-02-16T21:00:32;11.90;99.90
26655;DHT22;14278;50.784;4.630;2024-02-16T21:02:57;11.70;99.90
26655;DHT22;14278;50.784;4.630;2024-02-16T21:05:23;11.60;99.90
26655;DHT22;14278;50.784;4.630;2024-02-16T21:07:50;11.50;99.90
26655;DHT22;14278;50.784;4.630;2024-02-16T21:10:16;11.50;99.90
26655;DHT22;14278;50.784;4.630;2024-02-16T21:12:42;11.60;99.90
26655;DHT22;14278;50.784;4.630;2024-02-16T21:15:08;11.60;99.90
26655;DHT22;14278;50.784;4.630;2024-02-16T21:17:34;11.60;99.90
26655;DHT22;14278;50.784;4.630;2024-02-16T21:20:05;11.70;99.90
26655;DHT22;14278;50.784;4.630;2024-02-16T21:22:36;11.90;99.90
26655;DHT22;14278;50.784;4.630;2024-02-16T21:27:52;11.70;99.90
26655;DHT22;14278;50.784;4.630;2024-02-16T21:30:19;11.60;99.90
26655;DHT22;14278;50.784;4.630;2024-02-16T21:37:56;11.40;99.90
26655;DHT22;14278;50.784;4.630;2024-02-16T21:40:22;11.50;99.90
26655;DHT22;14278;50.784;4.630;2024-02-16T21:42:49;11.30;99.90
26655;DHT22;14278;50.784;4.630;2024-02-16T21:45:15;11.50;99.90
26655;DHT22;14278;50.784;4.630;2024-02-16T21:47:42;11.40;99.90
26655;DHT22;14278;50.784;4.630;2024-02-16T21:50:08;11.40;99.90
26655;DHT22;14278;50.784;4.630;2024-02-16T21:52:36;11.40;99.90
26655;DHT22;14278;50.784;4.630;2024-02-16T21:55:02;11.40;99.90
26655;DHT22;14278;50.784;4.630;2024-02-16T21:57:27;11.40;99.90
26655;DHT22;14278;50.784;4.630;2024-02-16T21:59:53;11.40;99.90
26655;DHT22;14278;50.784;4.630;2024-02-16T22:02:19;11.40;99.90
26655;DHT22;14278;50.784;4.630;2024-02-16T22:04:45;11.30;99.90
26655;DHT22;14278;50.784;4.630;2024-02-16T22:07:15;11.30;99.90
26655;DHT22;14278;50.784;4.630;2024-02-16T22:09:40;11.50;99.90
26655;DHT22;14278;50.784;4.630;2024-02-16T22:12:07;11.40;99.90
26655;DHT22;14278;50.784;4.630;2024-02-16T22:14:35;11.50;99.90
26655;DHT22;14278;50.784;4.630;2024-02-16T22:17:01;11.50;99.90
26655;DHT22;14278;50.784;4.630;2024-02-16T22:19:28;11.40;99.90
26655;DHT22;14278;50.784;4.630;2024-02-16T22:21:54;11.30;99.90
26655;DHT22;14278;50.784;4.630;2024-02-16T22:24:20;11.50;99.90
26655;DHT22;14278;50.784;4.630;2024-02-16T22:26:46;11.70;99.90
26655;DHT22;14278;50.784;4.630;2024-02-16T22:29:11;11.80;99.90
26655;DHT22;14278;50.784;4.630;2024-02-16T22:31:37;11.70;99.90
26655;DHT22;14278;50.784;4.630;2024-02-16T22:34:05;11.70;99.90
26655;DHT22;14278;50.784;4.630;2024-02-16T22:36:31;11.90;99.90
26655;DHT22;14278;50.784;4.630;2024-02-16T22:38:58;11.80;99.90
26655;DHT22;14278;50.784;4.630;2024-02-16T22:41:25;11.80;99.90
26655;DHT22;14278;50.784;4.630;2024-02-16T22:46:26;11.30;99.90
26655;DHT22;14278;50.784;4.630;2024-02-16T22:48:52;11.30;99.90
26655;DHT22;14278;50.784;4.630;2024-02-16T22:51:17;11.50;99.90